sensor_id;sensor_type;location;lat;lon;timestamp;P1;durP1;ratioP1;P2;durP2;ratioP2
68921;SDS011;55959;51.244;5.724;2023-04-25T00:01:31;10.77;;;4.60;;
68921;SDS011;55959;51.244;5.724;2023-04-25T00:04:00;7.47;;;3.93;;
68921;SDS011;55959;51.244;5.724;2023-04-25T00:06:27;11.73;;;5.00;;
68921;SDS011;55959;51.244;5.724;2023-04-25T00:08:54;7.13;;;4.27;;
68921;SDS011;55959;51.244;5.724;2023-04-25T00:11:21;9.67;;;4.83;;
68921;SDS011;55959;51.244;5.724;2023-04-25T00:13:48;14.70;;;5.93;;
68921;SDS011;55959;51.244;5.724;2023-04-25T00:16:15;12.17;;;5.60;;
68921;SDS011;55959;51.244;5.724;2023-04-25T00:18:42;10.43;;;4.90;;
68921;SDS011;55959;51.244;5.724;2023-04-25T00:21:08;8.53;;;4.80;;
68921;SDS011;55959;51.244;5.724;2023-04-25T00:23:34;9.43;;;4.80;;
68921;SDS011;55959;51.244;5.724;2023-04-25T00:26:01;7.73;;;4.40;;
68921;SDS011;55959;51.244;5.724;2023-04-25T00:28:27;8.90;;;4.70;;
68921;SDS011;55959;51.244;5.724;2023-04-25T00:30:53;10.73;;;4.90;;
68921;SDS011;55959;51.244;5.724;2023-04-25T00:33:19;14.27;;;6.00;;
68921;SDS011;55959;51.244;5.724;2023-04-25T00:35:45;8.10;;;4.80;;
68921;SDS011;55959;51.244;5.724;2023-04-25T00:38:10;13.47;;;5.30;;
68921;SDS011;55959;51.244;5.724;2023-04-25T00:40:36;8.07;;;4.77;;
68921;SDS011;55959;51.244;5.724;2023-04-25T00:43:02;11.67;;;5.20;;
68921;SDS011;55959;51.244;5.724;2023-04-25T00:45:28;13.63;;;5.27;;
68921;SDS011;55959;51.244;5.724;2023-04-25T00:47:54;15.10;;;6.13;;
68921;SDS011;55959;51.244;5.724;2023-04-25T00:50:21;12.20;;;5.83;;
68921;SDS011;55959;51.244;5.724;2023-04-25T00:52:48;10.17;;;5.67;;
68921;SDS011;55959;51.244;5.724;2023-04-25T00:55:13;12.77;;;5.50;;
68921;SDS011;55959;51.244;5.724;2023-04-25T00:57:40;11.10;;;6.53;;
68921;SDS011;55959;51.244;5.724;2023-04-25T01:00:08;13.90;;;5.97;;
68921;SDS011;55959;51.244;5.724;2023-04-25T01:02:36;10.53;;;6.53;;
68921;SDS011;55959;51.244;5.724;2023-04-25T01:05:02;13.53;;;5.70;;
68921;SDS011;55959;51.244;5.724;2023-04-25T01:07:29;18.00;;;6.40;;
68921;SDS011;55959;51.244;5.724;2023-04-25T01:09:55;16.50;;;6.23;;
68921;SDS011;55959;51.244;5.724;2023-04-25T01:12:21;11.87;;;5.53;;
68921;SDS011;55959;51.244;5.724;2023-04-25T01:14:48;12.17;;;5.73;;
68921;SDS011;55959;51.244;5.724;2023-04-25T01:17:13;11.60;;;5.57;;
68921;SDS011;55959;51.244;5.724;2023-04-25T01:19:40;9.43;;;4.67;;
68921;SDS011;55959;51.244;5.724;2023-04-25T01:22:06;10.57;;;5.83;;
68921;SDS011;55959;51.244;5.724;2023-04-25T01:24:35;15.63;;;6.43;;
68921;SDS011;55959;51.244;5.724;2023-04-25T01:27:02;12.23;;;6.43;;
68921;SDS011;55959;51.244;5.724;2023-04-25T01:29:28;8.63;;;4.40;;
68921;SDS011;55959;51.244;5.724;2023-04-25T01:31:54;9.80;;;4.67;;
68921;SDS011;55959;51.244;5.724;2023-04-25T01:34:20;8.50;;;5.10;;
68921;SDS011;55959;51.244;5.724;2023-04-25T01:36:50;11.27;;;4.93;;
68921;SDS011;55959;51.244;5.724;2023-04-25T01:39:16;7.93;;;4.33;;
68921;SDS011;55959;51.244;5.724;2023-04-25T01:41:43;8.53;;;4.97;;
68921;SDS011;55959;51.244;5.724;2023-04-25T01:44:11;9.47;;;4.83;;
68921;SDS011;55959;51.244;5.724;2023-04-25T01:46:36;14.07;;;6.50;;
68921;SDS011;55959;51.244;5.724;2023-04-25T01:49:02;11.40;;;5.70;;
68921;SDS011;55959;51.244;5.724;2023-04-25T01:51:28;9.67;;;5.37;;
68921;SDS011;55959;51.244;5.724;2023-04-25T01:53:55;13.30;;;6.00;;
68921;SDS011;55959;51.244;5.724;2023-04-25T01:56:22;11.63;;;5.80;;
68921;SDS011;55959;51.244;5.724;2023-04-25T01:58:48;8.77;;;5.63;;
68921;SDS011;55959;51.244;5.724;2023-04-25T02:01:14;8.07;;;5.00;;
68921;SDS011;55959;51.244;5.724;2023-04-25T02:03:39;9.07;;;4.70;;
68921;SDS011;55959;51.244;5.724;2023-04-25T02:06:05;9.60;;;4.23;;
68921;SDS011;55959;51.244;5.724;2023-04-25T02:08:31;13.00;;;5.57;;
68921;SDS011;55959;51.244;5.724;2023-04-25T02:10:57;7.43;;;4.30;;
68921;SDS011;55959;51.244;5.724;2023-04-25T02:13:23;10.37;;;4.90;;
68921;SDS011;55959;51.244;5.724;2023-04-25T02:15:48;6.90;;;4.63;;
68921;SDS011;55959;51.244;5.724;2023-04-25T02:18:14;7.73;;;4.07;;
68921;SDS011;55959;51.244;5.724;2023-04-25T02:20:43;8.30;;;4.80;;
68921;SDS011;55959;51.244;5.724;2023-04-25T02:23:09;9.33;;;4.87;;
68921;SDS011;55959;51.244;5.724;2023-04-25T02:25:34;8.77;;;5.13;;
68921;SDS011;55959;51.244;5.724;2023-04-25T02:28:00;10.27;;;5.30;;
68921;SDS011;55959;51.244;5.724;2023-04-25T02:30:27;8.90;;;4.60;;
68921;SDS011;55959;51.244;5.724;2023-04-25T02:32:53;5.97;;;3.97;;
68921;SDS011;55959;51.244;5.724;2023-04-25T02:35:19;7.83;;;3.77;;
68921;SDS011;55959;51.244;5.724;2023-04-25T02:37:44;5.03;;;3.77;;
68921;SDS011;55959;51.244;5.724;2023-04-25T02:40:10;10.67;;;5.07;;
68921;SDS011;55959;51.244;5.724;2023-04-25T02:42:36;8.53;;;4.00;;
68921;SDS011;55959;51.244;5.724;2023-04-25T02:45:02;11.20;;;5.03;;
68921;SDS011;55959;51.244;5.724;2023-04-25T02:47:28;8.83;;;4.30;;
68921;SDS011;55959;51.244;5.724;2023-04-25T02:49:55;11.77;;;5.20;;
68921;SDS011;55959;51.244;5.724;2023-04-25T02:52:20;7.73;;;4.17;;
68921;SDS011;55959;51.244;5.724;2023-04-25T02:54:46;8.00;;;4.67;;
68921;SDS011;55959;51.244;5.724;2023-04-25T02:57:12;10.53;;;4.93;;
68921;SDS011;55959;51.244;5.724;2023-04-25T02:59:38;10.27;;;4.37;;
68921;SDS011;55959;51.244;5.724;2023-04-25T03:02:03;12.53;;;5.40;;
68921;SDS011;55959;51.244;5.724;2023-04-25T03:04:29;7.97;;;4.43;;
68921;SDS011;55959;51.244;5.724;2023-04-25T03:06:55;9.67;;;4.50;;
68921;SDS011;55959;51.244;5.724;2023-04-25T03:09:21;12.27;;;6.67;;
68921;SDS011;55959;51.244;5.724;2023-04-25T03:11:46;10.87;;;5.00;;
68921;SDS011;55959;51.244;5.724;2023-04-25T03:14:12;10.70;;;4.60;;
68921;SDS011;55959;51.244;5.724;2023-04-25T03:16:38;11.70;;;5.77;;
68921;SDS011;55959;51.244;5.724;2023-04-25T03:19:04;11.47;;;5.30;;
68921;SDS011;55959;51.244;5.724;2023-04-25T03:21:31;12.80;;;6.17;;
68921;SDS011;55959;51.244;5.724;2023-04-25T03:24:00;11.97;;;6.63;;
68921;SDS011;55959;51.244;5.724;2023-04-25T03:26:28;13.53;;;6.63;;
68921;SDS011;55959;51.244;5.724;2023-04-25T03:28:54;10.63;;;5.97;;
68921;SDS011;55959;51.244;5.724;2023-04-25T03:31:20;13.57;;;6.60;;
68921;SDS011;55959;51.244;5.724;2023-04-25T03:33:47;8.23;;;5.37;;
68921;SDS011;55959;51.244;5.724;2023-04-25T03:36:13;11.97;;;5.93;;
68921;SDS011;55959;51.244;5.724;2023-04-25T03:38:38;16.77;;;7.03;;
68921;SDS011;55959;51.244;5.724;2023-04-25T03:41:06;14.73;;;6.40;;
68921;SDS011;55959;51.244;5.724;2023-04-25T03:43:33;15.13;;;7.07;;
68921;SDS011;55959;51.244;5.724;2023-04-25T03:45:58;13.97;;;6.53;;
68921;SDS011;55959;51.244;5.724;2023-04-25T03:48:25;7.07;;;5.23;;
68921;SDS011;55959;51.244;5.724;2023-04-25T03:50:52;12.60;;;6.17;;
68921;SDS011;55959;51.244;5.724;2023-04-25T03:53:18;11.77;;;5.70;;
68921;SDS011;55959;51.244;5.724;2023-04-25T03:55:44;9.93;;;4.90;;
68921;SDS011;55959;51.244;5.724;2023-04-25T03:58:10;7.73;;;4.63;;
68921;SDS011;55959;51.244;5.724;2023-04-25T04:00:36;7.37;;;4.60;;
68921;SDS011;55959;51.244;5.724;2023-04-25T04:03:01;14.43;;;6.43;;
68921;SDS011;55959;51.244;5.724;2023-04-25T04:05:27;12.23;;;5.83;;
68921;SDS011;55959;51.244;5.724;2023-04-25T04:07:53;8.27;;;4.77;;
68921;SDS011;55959;51.244;5.724;2023-04-25T04:10:20;11.37;;;5.47;;
68921;SDS011;55959;51.244;5.724;2023-04-25T04:12:46;10.60;;;5.80;;
68921;SDS011;55959;51.244;5.724;2023-04-25T04:15:12;8.93;;;5.60;;
68921;SDS011;55959;51.244;5.724;2023-04-25T04:17:38;11.07;;;6.00;;
68921;SDS011;55959;51.244;5.724;2023-04-25T04:20:04;9.37;;;5.40;;
68921;SDS011;55959;51.244;5.724;2023-04-25T04:22:31;8.50;;;4.67;;
68921;SDS011;55959;51.244;5.724;2023-04-25T04:24:57;12.90;;;6.37;;
68921;SDS011;55959;51.244;5.724;2023-04-25T04:27:22;9.10;;;4.83;;
68921;SDS011;55959;51.244;5.724;2023-04-25T04:29:48;12.57;;;6.27;;
68921;SDS011;55959;51.244;5.724;2023-04-25T04:32:17;11.43;;;5.30;;
68921;SDS011;55959;51.244;5.724;2023-04-25T04:34:42;10.70;;;5.47;;
68921;SDS011;55959;51.244;5.724;2023-04-25T04:37:09;8.63;;;5.00;;
68921;SDS011;55959;51.244;5.724;2023-04-25T04:39:35;11.67;;;5.50;;
68921;SDS011;55959;51.244;5.724;2023-04-25T04:42:01;17.73;;;6.60;;
68921;SDS011;55959;51.244;5.724;2023-04-25T04:44:28;11.13;;;6.27;;
68921;SDS011;55959;51.244;5.724;2023-04-25T04:46:57;14.13;;;6.23;;
68921;SDS011;55959;51.244;5.724;2023-04-25T04:49:23;12.13;;;5.53;;
68921;SDS011;55959;51.244;5.724;2023-04-25T04:51:49;19.77;;;5.97;;
68921;SDS011;55959;51.244;5.724;2023-04-25T04:54:15;11.10;;;5.43;;
68921;SDS011;55959;51.244;5.724;2023-04-25T04:56:41;11.13;;;5.80;;
68921;SDS011;55959;51.244;5.724;2023-04-25T04:59:07;13.70;;;5.57;;
68921;SDS011;55959;51.244;5.724;2023-04-25T05:01:33;10.37;;;5.40;;
68921;SDS011;55959;51.244;5.724;2023-04-25T05:04:00;12.33;;;6.13;;
68921;SDS011;55959;51.244;5.724;2023-04-25T05:06:27;10.83;;;5.47;;
68921;SDS011;55959;51.244;5.724;2023-04-25T05:08:56;14.37;;;5.97;;
68921;SDS011;55959;51.244;5.724;2023-04-25T05:11:23;16.90;;;6.33;;
68921;SDS011;55959;51.244;5.724;2023-04-25T05:13:51;13.63;;;6.40;;
68921;SDS011;55959;51.244;5.724;2023-04-25T05:16:17;10.73;;;5.03;;
68921;SDS011;55959;51.244;5.724;2023-04-25T05:18:44;9.50;;;4.70;;
68921;SDS011;55959;51.244;5.724;2023-04-25T05:21:11;9.83;;;5.30;;
68921;SDS011;55959;51.244;5.724;2023-04-25T05:23:37;9.90;;;4.63;;
68921;SDS011;55959;51.244;5.724;2023-04-25T05:26:03;6.40;;;5.10;;
68921;SDS011;55959;51.244;5.724;2023-04-25T05:28:28;9.80;;;5.23;;
68921;SDS011;55959;51.244;5.724;2023-04-25T05:30:54;10.03;;;5.57;;
68921;SDS011;55959;51.244;5.724;2023-04-25T05:33:20;11.40;;;5.43;;
68921;SDS011;55959;51.244;5.724;2023-04-25T05:35:46;9.73;;;5.43;;
68921;SDS011;55959;51.244;5.724;2023-04-25T05:38:11;7.23;;;4.80;;
68921;SDS011;55959;51.244;5.724;2023-04-25T05:40:37;13.93;;;6.27;;
68921;SDS011;55959;51.244;5.724;2023-04-25T05:43:03;14.07;;;5.87;;
68921;SDS011;55959;51.244;5.724;2023-04-25T05:45:29;11.90;;;5.43;;
68921;SDS011;55959;51.244;5.724;2023-04-25T05:47:55;13.57;;;5.63;;
68921;SDS011;55959;51.244;5.724;2023-04-25T05:50:20;8.30;;;5.00;;
68921;SDS011;55959;51.244;5.724;2023-04-25T05:52:46;12.00;;;5.30;;
68921;SDS011;55959;51.244;5.724;2023-04-25T05:55:12;10.60;;;4.80;;
68921;SDS011;55959;51.244;5.724;2023-04-25T05:57:38;13.83;;;5.37;;
68921;SDS011;55959;51.244;5.724;2023-04-25T06:00:06;8.70;;;5.17;;
68921;SDS011;55959;51.244;5.724;2023-04-25T06:02:34;7.20;;;4.63;;
68921;SDS011;55959;51.244;5.724;2023-04-25T06:05:01;9.30;;;4.23;;
68921;SDS011;55959;51.244;5.724;2023-04-25T06:07:30;12.17;;;5.27;;
68921;SDS011;55959;51.244;5.724;2023-04-25T06:09:56;14.50;;;4.47;;
68921;SDS011;55959;51.244;5.724;2023-04-25T06:12:22;9.93;;;4.93;;
68921;SDS011;55959;51.244;5.724;2023-04-25T06:14:47;9.37;;;4.50;;
68921;SDS011;55959;51.244;5.724;2023-04-25T06:17:13;8.23;;;4.40;;
68921;SDS011;55959;51.244;5.724;2023-04-25T06:19:39;10.93;;;4.67;;
68921;SDS011;55959;51.244;5.724;2023-04-25T06:22:05;9.53;;;4.17;;
68921;SDS011;55959;51.244;5.724;2023-04-25T06:24:32;9.47;;;4.33;;
68921;SDS011;55959;51.244;5.724;2023-04-25T06:26:58;10.20;;;5.33;;
68921;SDS011;55959;51.244;5.724;2023-04-25T06:29:25;9.30;;;4.67;;
68921;SDS011;55959;51.244;5.724;2023-04-25T06:31:51;12.33;;;5.37;;
68921;SDS011;55959;51.244;5.724;2023-04-25T06:34:17;12.73;;;5.53;;
68921;SDS011;55959;51.244;5.724;2023-04-25T06:36:42;9.13;;;4.33;;
68921;SDS011;55959;51.244;5.724;2023-04-25T06:39:09;6.37;;;3.47;;
68921;SDS011;55959;51.244;5.724;2023-04-25T06:41:35;9.67;;;3.93;;
68921;SDS011;55959;51.244;5.724;2023-04-25T06:44:01;8.00;;;3.43;;
68921;SDS011;55959;51.244;5.724;2023-04-25T06:46:27;11.63;;;4.60;;
68921;SDS011;55959;51.244;5.724;2023-04-25T06:48:53;9.07;;;3.90;;
68921;SDS011;55959;51.244;5.724;2023-04-25T06:51:19;10.63;;;4.40;;
68921;SDS011;55959;51.244;5.724;2023-04-25T06:53:44;8.50;;;3.10;;
68921;SDS011;55959;51.244;5.724;2023-04-25T06:56:10;10.57;;;3.10;;
68921;SDS011;55959;51.244;5.724;2023-04-25T06:58:37;7.30;;;2.90;;
68921;SDS011;55959;51.244;5.724;2023-04-25T07:01:03;11.83;;;3.27;;
68921;SDS011;55959;51.244;5.724;2023-04-25T07:03:29;6.10;;;2.57;;
68921;SDS011;55959;51.244;5.724;2023-04-25T07:05:56;7.03;;;3.03;;
68921;SDS011;55959;51.244;5.724;2023-04-25T07:08:21;5.67;;;2.40;;
68921;SDS011;55959;51.244;5.724;2023-04-25T07:10:47;7.63;;;2.53;;
68921;SDS011;55959;51.244;5.724;2023-04-25T07:13:13;5.20;;;2.50;;
68921;SDS011;55959;51.244;5.724;2023-04-25T07:15:39;5.93;;;2.53;;
68921;SDS011;55959;51.244;5.724;2023-04-25T07:18:04;7.03;;;2.63;;
68921;SDS011;55959;51.244;5.724;2023-04-25T07:20:30;10.70;;;2.67;;
68921;SDS011;55959;51.244;5.724;2023-04-25T07:22:57;7.60;;;2.60;;
68921;SDS011;55959;51.244;5.724;2023-04-25T07:25:23;6.77;;;2.80;;
68921;SDS011;55959;51.244;5.724;2023-04-25T07:27:50;8.23;;;2.97;;
68921;SDS011;55959;51.244;5.724;2023-04-25T07:30:16;5.57;;;2.27;;
68921;SDS011;55959;51.244;5.724;2023-04-25T07:32:42;6.87;;;2.00;;
68921;SDS011;55959;51.244;5.724;2023-04-25T07:35:07;4.43;;;1.80;;
68921;SDS011;55959;51.244;5.724;2023-04-25T07:37:34;8.77;;;2.57;;
68921;SDS011;55959;51.244;5.724;2023-04-25T07:40:01;8.37;;;2.50;;
68921;SDS011;55959;51.244;5.724;2023-04-25T07:42:30;8.20;;;2.30;;
68921;SDS011;55959;51.244;5.724;2023-04-25T07:44:56;5.10;;;2.47;;
68921;SDS011;55959;51.244;5.724;2023-04-25T07:47:22;7.17;;;2.63;;
68921;SDS011;55959;51.244;5.724;2023-04-25T07:49:48;5.00;;;2.47;;
68921;SDS011;55959;51.244;5.724;2023-04-25T07:52:13;7.70;;;2.83;;
68921;SDS011;55959;51.244;5.724;2023-04-25T07:54:39;9.17;;;2.87;;
68921;SDS011;55959;51.244;5.724;2023-04-25T07:57:05;6.73;;;2.70;;
68921;SDS011;55959;51.244;5.724;2023-04-25T07:59:33;4.87;;;2.10;;
68921;SDS011;55959;51.244;5.724;2023-04-25T08:01:59;5.67;;;2.37;;
68921;SDS011;55959;51.244;5.724;2023-04-25T08:04:26;5.30;;;2.10;;
68921;SDS011;55959;51.244;5.724;2023-04-25T08:06:51;5.83;;;2.10;;
68921;SDS011;55959;51.244;5.724;2023-04-25T08:09:18;5.20;;;1.93;;
68921;SDS011;55959;51.244;5.724;2023-04-25T08:11:45;5.03;;;2.00;;
68921;SDS011;55959;51.244;5.724;2023-04-25T08:14:11;5.03;;;1.90;;
68921;SDS011;55959;51.244;5.724;2023-04-25T08:16:37;3.03;;;1.70;;
68921;SDS011;55959;51.244;5.724;2023-04-25T08:19:03;5.83;;;1.70;;
68921;SDS011;55959;51.244;5.724;2023-04-25T08:21:30;8.33;;;2.27;;
68921;SDS011;55959;51.244;5.724;2023-04-25T08:23:57;4.07;;;1.53;;
68921;SDS011;55959;51.244;5.724;2023-04-25T08:26:25;5.43;;;1.70;;
68921;SDS011;55959;51.244;5.724;2023-04-25T08:28:50;3.77;;;1.67;;
68921;SDS011;55959;51.244;5.724;2023-04-25T08:31:16;6.03;;;1.50;;
68921;SDS011;55959;51.244;5.724;2023-04-25T08:33:43;3.80;;;1.50;;
68921;SDS011;55959;51.244;5.724;2023-04-25T08:36:10;3.23;;;1.27;;
68921;SDS011;55959;51.244;5.724;2023-04-25T08:38:36;3.63;;;1.70;;
68921;SDS011;55959;51.244;5.724;2023-04-25T08:41:02;3.47;;;1.53;;
68921;SDS011;55959;51.244;5.724;2023-04-25T08:43:29;5.13;;;1.77;;
68921;SDS011;55959;51.244;5.724;2023-04-25T08:46:01;3.97;;;1.40;;
68921;SDS011;55959;51.244;5.724;2023-04-25T08:48:27;3.67;;;1.50;;
68921;SDS011;55959;51.244;5.724;2023-04-25T08:50:54;5.27;;;1.70;;
68921;SDS011;55959;51.244;5.724;2023-04-25T08:53:28;4.83;;;1.40;;
68921;SDS011;55959;51.244;5.724;2023-04-25T08:55:57;4.80;;;1.93;;
68921;SDS011;55959;51.244;5.724;2023-04-25T08:58:24;2.90;;;1.20;;
68921;SDS011;55959;51.244;5.724;2023-04-25T09:00:51;3.83;;;1.47;;
68921;SDS011;55959;51.244;5.724;2023-04-25T09:03:17;3.60;;;1.60;;
68921;SDS011;55959;51.244;5.724;2023-04-25T09:05:44;5.60;;;1.57;;
68921;SDS011;55959;51.244;5.724;2023-04-25T09:08:11;2.53;;;1.37;;
68921;SDS011;55959;51.244;5.724;2023-04-25T09:10:37;4.13;;;1.40;;
68921;SDS011;55959;51.244;5.724;2023-04-25T09:13:07;3.67;;;1.37;;
68921;SDS011;55959;51.244;5.724;2023-04-25T09:18:30;4.40;;;1.60;;
68921;SDS011;55959;51.244;5.724;2023-04-25T09:21:09;3.97;;;1.40;;
68921;SDS011;55959;51.244;5.724;2023-04-25T09:23:48;4.13;;;1.40;;
68921;SDS011;55959;51.244;5.724;2023-04-25T09:26:15;4.27;;;1.87;;
68921;SDS011;55959;51.244;5.724;2023-04-25T09:28:44;3.07;;;1.03;;
68921;SDS011;55959;51.244;5.724;2023-04-25T09:31:11;3.17;;;1.20;;
68921;SDS011;55959;51.244;5.724;2023-04-25T09:33:37;4.57;;;1.50;;
68921;SDS011;55959;51.244;5.724;2023-04-25T09:38:39;3.93;;;1.33;;
68921;SDS011;55959;51.244;5.724;2023-04-25T09:41:08;4.87;;;1.60;;
68921;SDS011;55959;51.244;5.724;2023-04-25T09:43:35;2.67;;;1.37;;
68921;SDS011;55959;51.244;5.724;2023-04-25T09:46:01;3.80;;;1.33;;
68921;SDS011;55959;51.244;5.724;2023-04-25T09:48:28;2.90;;;1.20;;
68921;SDS011;55959;51.244;5.724;2023-04-25T09:51:04;5.40;;;1.43;;
68921;SDS011;55959;51.244;5.724;2023-04-25T09:53:37;2.83;;;1.30;;
68921;SDS011;55959;51.244;5.724;2023-04-25T09:56:05;3.73;;;1.27;;
68921;SDS011;55959;51.244;5.724;2023-04-25T09:58:34;3.73;;;1.37;;
68921;SDS011;55959;51.244;5.724;2023-04-25T10:01:02;3.40;;;1.07;;
68921;SDS011;55959;51.244;5.724;2023-04-25T10:03:31;5.27;;;1.60;;
68921;SDS011;55959;51.244;5.724;2023-04-25T10:06:08;3.40;;;1.00;;
68921;SDS011;55959;51.244;5.724;2023-04-25T10:08:38;4.13;;;1.10;;
68921;SDS011;55959;51.244;5.724;2023-04-25T10:11:05;2.70;;;1.00;;
68921;SDS011;55959;51.244;5.724;2023-04-25T10:13:33;5.53;;;1.47;;
68921;SDS011;55959;51.244;5.724;2023-04-25T10:16:02;5.10;;;1.80;;
68921;SDS011;55959;51.244;5.724;2023-04-25T10:18:30;3.90;;;1.30;;
68921;SDS011;55959;51.244;5.724;2023-04-25T10:20:58;4.80;;;1.73;;
68921;SDS011;55959;51.244;5.724;2023-04-25T10:23:26;5.07;;;1.93;;
68921;SDS011;55959;51.244;5.724;2023-04-25T10:25:54;5.27;;;1.60;;
68921;SDS011;55959;51.244;5.724;2023-04-25T10:28:21;7.13;;;2.10;;
68921;SDS011;55959;51.244;5.724;2023-04-25T10:33:29;3.30;;;1.50;;
68921;SDS011;55959;51.244;5.724;2023-04-25T10:36:35;3.10;;;1.50;;
68921;SDS011;55959;51.244;5.724;2023-04-25T10:38:58;3.77;;;1.30;;
68921;SDS011;55959;51.244;5.724;2023-04-25T10:41:53;3.03;;;1.20;;
68921;SDS011;55959;51.244;5.724;2023-04-25T10:44:22;6.03;;;1.50;;
68921;SDS011;55959;51.244;5.724;2023-04-25T10:46:48;5.53;;;1.63;;
68921;SDS011;55959;51.244;5.724;2023-04-25T10:52:16;3.27;;;1.37;;
68921;SDS011;55959;51.244;5.724;2023-04-25T10:54:51;2.27;;;0.90;;
68921;SDS011;55959;51.244;5.724;2023-04-25T11:03:02;3.60;;;1.07;;
68921;SDS011;55959;51.244;5.724;2023-04-25T11:05:37;3.53;;;1.00;;
68921;SDS011;55959;51.244;5.724;2023-04-25T11:08:09;3.37;;;1.20;;
68921;SDS011;55959;51.244;5.724;2023-04-25T11:10:37;2.70;;;1.07;;
68921;SDS011;55959;51.244;5.724;2023-04-25T11:13:05;3.23;;;1.20;;
68921;SDS011;55959;51.244;5.724;2023-04-25T11:15:31;3.03;;;1.00;;
68921;SDS011;55959;51.244;5.724;2023-04-25T11:17:56;3.80;;;1.37;;
68921;SDS011;55959;51.244;5.724;2023-04-25T11:20:24;2.23;;;1.30;;
68921;SDS011;55959;51.244;5.724;2023-04-25T11:22:51;6.27;;;1.57;;
68921;SDS011;55959;51.244;5.724;2023-04-25T11:25:17;6.77;;;1.77;;
68921;SDS011;55959;51.244;5.724;2023-04-25T11:27:55;3.37;;;1.20;;
68921;SDS011;55959;51.244;5.724;2023-04-25T11:30:23;4.93;;;1.40;;
68921;SDS011;55959;51.244;5.724;2023-04-25T11:32:51;3.60;;;1.40;;
68921;SDS011;55959;51.244;5.724;2023-04-25T11:35:18;3.43;;;1.13;;
68921;SDS011;55959;51.244;5.724;2023-04-25T11:37:45;3.53;;;1.20;;
68921;SDS011;55959;51.244;5.724;2023-04-25T11:40:11;3.07;;;1.40;;
68921;SDS011;55959;51.244;5.724;2023-04-25T11:42:37;5.00;;;1.43;;
68921;SDS011;55959;51.244;5.724;2023-04-25T11:45:14;3.53;;;1.37;;
68921;SDS011;55959;51.244;5.724;2023-04-25T11:47:39;2.27;;;1.23;;
68921;SDS011;55959;51.244;5.724;2023-04-25T11:50:06;2.63;;;1.30;;
68921;SDS011;55959;51.244;5.724;2023-04-25T11:55:07;4.57;;;1.50;;
68921;SDS011;55959;51.244;5.724;2023-04-25T11:57:34;3.00;;;1.13;;
68921;SDS011;55959;51.244;5.724;2023-04-25T12:00:11;5.10;;;1.40;;
68921;SDS011;55959;51.244;5.724;2023-04-25T12:02:42;3.27;;;1.20;;
68921;SDS011;55959;51.244;5.724;2023-04-25T12:05:10;3.83;;;1.03;;
68921;SDS011;55959;51.244;5.724;2023-04-25T12:07:38;2.50;;;0.97;;
68921;SDS011;55959;51.244;5.724;2023-04-25T12:10:04;4.07;;;1.40;;
68921;SDS011;55959;51.244;5.724;2023-04-25T12:12:38;3.43;;;1.20;;
68921;SDS011;55959;51.244;5.724;2023-04-25T12:15:18;3.37;;;1.50;;
68921;SDS011;55959;51.244;5.724;2023-04-25T12:17:49;5.20;;;1.33;;
68921;SDS011;55959;51.244;5.724;2023-04-25T12:20:21;3.23;;;1.10;;
68921;SDS011;55959;51.244;5.724;2023-04-25T12:22:51;2.80;;;1.17;;
68921;SDS011;55959;51.244;5.724;2023-04-25T12:33:26;4.00;;;1.20;;
68921;SDS011;55959;51.244;5.724;2023-04-25T12:35:54;2.77;;;1.10;;
68921;SDS011;55959;51.244;5.724;2023-04-25T12:38:30;1.93;;;0.90;;
68921;SDS011;55959;51.244;5.724;2023-04-25T12:40:59;3.13;;;0.90;;
68921;SDS011;55959;51.244;5.724;2023-04-25T12:43:25;2.20;;;1.10;;
68921;SDS011;55959;51.244;5.724;2023-04-25T12:45:52;4.57;;;1.30;;
68921;SDS011;55959;51.244;5.724;2023-04-25T12:48:20;2.90;;;1.17;;
68921;SDS011;55959;51.244;5.724;2023-04-25T12:50:47;3.67;;;1.13;;
68921;SDS011;55959;51.244;5.724;2023-04-25T12:53:15;2.73;;;1.00;;
68921;SDS011;55959;51.244;5.724;2023-04-25T12:55:42;4.27;;;1.33;;
68921;SDS011;55959;51.244;5.724;2023-04-25T12:58:08;1.50;;;1.00;;
68921;SDS011;55959;51.244;5.724;2023-04-25T13:00:34;2.77;;;1.47;;
68921;SDS011;55959;51.244;5.724;2023-04-25T13:02:59;2.23;;;1.07;;
68921;SDS011;55959;51.244;5.724;2023-04-25T13:05:25;4.63;;;1.20;;
68921;SDS011;55959;51.244;5.724;2023-04-25T13:07:51;3.80;;;1.40;;
68921;SDS011;55959;51.244;5.724;2023-04-25T13:10:17;4.80;;;1.50;;
68921;SDS011;55959;51.244;5.724;2023-04-25T13:12:43;3.33;;;1.37;;
68921;SDS011;55959;51.244;5.724;2023-04-25T13:15:09;2.03;;;0.90;;
68921;SDS011;55959;51.244;5.724;2023-04-25T13:17:36;3.87;;;1.60;;
68921;SDS011;55959;51.244;5.724;2023-04-25T13:20:04;2.90;;;1.07;;
68921;SDS011;55959;51.244;5.724;2023-04-25T13:22:33;3.90;;;1.10;;
68921;SDS011;55959;51.244;5.724;2023-04-25T13:25:03;2.63;;;1.10;;
68921;SDS011;55959;51.244;5.724;2023-04-25T13:27:30;2.83;;;1.37;;
68921;SDS011;55959;51.244;5.724;2023-04-25T13:29:58;4.97;;;1.30;;
68921;SDS011;55959;51.244;5.724;2023-04-25T13:32:32;2.47;;;1.07;;
68921;SDS011;55959;51.244;5.724;2023-04-25T13:35:01;0.97;;;0.67;;
68921;SDS011;55959;51.244;5.724;2023-04-25T13:37:29;3.87;;;1.20;;
68921;SDS011;55959;51.244;5.724;2023-04-25T13:39:55;3.33;;;1.33;;
68921;SDS011;55959;51.244;5.724;2023-04-25T13:42:21;3.23;;;1.27;;
68921;SDS011;55959;51.244;5.724;2023-04-25T13:44:48;1.80;;;0.80;;
68921;SDS011;55959;51.244;5.724;2023-04-25T13:47:14;2.13;;;0.93;;
68921;SDS011;55959;51.244;5.724;2023-04-25T13:49:39;1.60;;;0.90;;
68921;SDS011;55959;51.244;5.724;2023-04-25T13:52:05;2.80;;;1.00;;
68921;SDS011;55959;51.244;5.724;2023-04-25T13:54:31;1.03;;;0.70;;
68921;SDS011;55959;51.244;5.724;2023-04-25T13:56:57;2.10;;;0.80;;
68921;SDS011;55959;51.244;5.724;2023-04-25T13:59:24;1.53;;;0.77;;
68921;SDS011;55959;51.244;5.724;2023-04-25T14:01:50;2.40;;;0.60;;
68921;SDS011;55959;51.244;5.724;2023-04-25T14:04:16;3.63;;;0.93;;
68921;SDS011;55959;51.244;5.724;2023-04-25T14:06:42;2.53;;;1.17;;
68921;SDS011;55959;51.244;5.724;2023-04-25T14:09:08;2.90;;;1.27;;
68921;SDS011;55959;51.244;5.724;2023-04-25T14:11:35;2.73;;;1.00;;
68921;SDS011;55959;51.244;5.724;2023-04-25T14:14:01;1.73;;;0.60;;
68921;SDS011;55959;51.244;5.724;2023-04-25T14:16:28;4.50;;;1.20;;
68921;SDS011;55959;51.244;5.724;2023-04-25T14:18:55;4.30;;;1.23;;
68921;SDS011;55959;51.244;5.724;2023-04-25T14:21:21;1.73;;;1.10;;
68921;SDS011;55959;51.244;5.724;2023-04-25T14:23:47;1.97;;;0.87;;
68921;SDS011;55959;51.244;5.724;2023-04-25T14:26:12;2.60;;;0.77;;
68921;SDS011;55959;51.244;5.724;2023-04-25T14:28:38;2.57;;;0.90;;
68921;SDS011;55959;51.244;5.724;2023-04-25T14:31:04;1.70;;;0.60;;
68921;SDS011;55959;51.244;5.724;2023-04-25T14:33:30;4.47;;;1.00;;
68921;SDS011;55959;51.244;5.724;2023-04-25T14:35:56;2.43;;;0.90;;
68921;SDS011;55959;51.244;5.724;2023-04-25T14:38:22;4.20;;;1.03;;
68921;SDS011;55959;51.244;5.724;2023-04-25T14:40:50;3.77;;;0.90;;
68921;SDS011;55959;51.244;5.724;2023-04-25T14:43:16;2.40;;;0.87;;
68921;SDS011;55959;51.244;5.724;2023-04-25T14:45:42;3.93;;;1.10;;
68921;SDS011;55959;51.244;5.724;2023-04-25T14:48:08;3.93;;;1.03;;
68921;SDS011;55959;51.244;5.724;2023-04-25T14:50:34;2.97;;;0.80;;
68921;SDS011;55959;51.244;5.724;2023-04-25T14:52:59;1.97;;;0.70;;
68921;SDS011;55959;51.244;5.724;2023-04-25T14:55:28;2.90;;;0.87;;
68921;SDS011;55959;51.244;5.724;2023-04-25T14:57:54;3.07;;;0.90;;
68921;SDS011;55959;51.244;5.724;2023-04-25T15:00:20;2.33;;;0.80;;
68921;SDS011;55959;51.244;5.724;2023-04-25T15:02:50;1.53;;;0.50;;
68921;SDS011;55959;51.244;5.724;2023-04-25T15:05:16;1.63;;;0.80;;
68921;SDS011;55959;51.244;5.724;2023-04-25T15:07:42;2.57;;;1.03;;
68921;SDS011;55959;51.244;5.724;2023-04-25T15:10:09;4.20;;;1.27;;